sensor_id;sensor_type;location;lat;lon;timestamp;P1;durP1;ratioP1;P2;durP2;ratioP2
13943;SDS011;7044;53.286;8.534;2023-02-21T00:00:07;18.83;;;9.43;;
13943;SDS011;7044;53.286;8.534;2023-02-21T00:02:52;20.80;;;8.98;;
13943;SDS011;7044;53.286;8.534;2023-02-21T00:05:36;15.13;;;9.10;;
13943;SDS011;7044;53.286;8.534;2023-02-21T00:08:20;18.30;;;8.95;;
13943;SDS011;7044;53.286;8.534;2023-02-21T00:11:04;20.60;;;9.50;;
13943;SDS011;7044;53.286;8.534;2023-02-21T00:13:50;17.10;;;9.00;;
13943;SDS011;7044;53.286;8.534;2023-02-21T00:16:34;20.10;;;9.07;;
13943;SDS011;7044;53.286;8.534;2023-02-21T00:19:18;17.90;;;9.13;;
13943;SDS011;7044;53.286;8.534;2023-02-21T00:22:03;14.57;;;9.18;;
13943;SDS011;7044;53.286;8.534;2023-02-21T00:24:47;17.37;;;9.40;;
13943;SDS011;7044;53.286;8.534;2023-02-21T00:27:32;17.67;;;8.55;;
13943;SDS011;7044;53.286;8.534;2023-02-21T00:30:17;19.20;;;9.13;;
13943;SDS011;7044;53.286;8.534;2023-02-21T00:33:02;18.77;;;9.80;;
13943;SDS011;7044;53.286;8.534;2023-02-21T00:35:47;15.73;;;9.18;;
13943;SDS011;7044;53.286;8.534;2023-02-21T00:38:31;14.65;;;9.20;;
13943;SDS011;7044;53.286;8.534;2023-02-21T00:41:15;14.43;;;9.25;;
13943;SDS011;7044;53.286;8.534;2023-02-21T00:43:59;14.82;;;8.48;;
13943;SDS011;7044;53.286;8.534;2023-02-21T00:46:45;14.15;;;9.90;;
13943;SDS011;7044;53.286;8.534;2023-02-21T00:49:30;17.17;;;9.27;;
13943;SDS011;7044;53.286;8.534;2023-02-21T00:52:14;15.68;;;9.20;;
13943;SDS011;7044;53.286;8.534;2023-02-21T00:54:58;14.15;;;8.50;;
13943;SDS011;7044;53.286;8.534;2023-02-21T00:57:42;20.63;;;9.37;;
13943;SDS011;7044;53.286;8.534;2023-02-21T01:00:28;18.57;;;9.23;;
13943;SDS011;7044;53.286;8.534;2023-02-21T01:03:13;13.73;;;8.27;;
13943;SDS011;7044;53.286;8.534;2023-02-21T01:05:57;14.60;;;8.60;;
13943;SDS011;7044;53.286;8.534;2023-02-21T01:08:42;17.30;;;8.25;;
13943;SDS011;7044;53.286;8.534;2023-02-21T01:11:27;21.30;;;8.97;;
13943;SDS011;7044;53.286;8.534;2023-02-21T01:14:12;16.50;;;8.70;;
13943;SDS011;7044;53.286;8.534;2023-02-21T01:16:56;18.02;;;8.55;;
13943;SDS011;7044;53.286;8.534;2023-02-21T01:19:42;14.50;;;8.35;;
13943;SDS011;7044;53.286;8.534;2023-02-21T01:22:26;15.13;;;8.27;;
13943;SDS011;7044;53.286;8.534;2023-02-21T01:25:11;13.48;;;7.53;;
13943;SDS011;7044;53.286;8.534;2023-02-21T01:27:55;18.25;;;7.55;;
13943;SDS011;7044;53.286;8.534;2023-02-21T01:30:39;16.77;;;8.43;;
13943;SDS011;7044;53.286;8.534;2023-02-21T01:33:24;17.77;;;8.07;;
13943;SDS011;7044;53.286;8.534;2023-02-21T01:36:10;13.20;;;7.60;;
13943;SDS011;7044;53.286;8.534;2023-02-21T01:38:54;11.53;;;8.03;;
13943;SDS011;7044;53.286;8.534;2023-02-21T01:41:39;13.55;;;7.97;;
13943;SDS011;7044;53.286;8.534;2023-02-21T01:44:28;18.60;;;7.00;;
13943;SDS011;7044;53.286;8.534;2023-02-21T01:47:18;14.90;;;7.95;;
13943;SDS011;7044;53.286;8.534;2023-02-21T01:50:03;13.40;;;8.00;;
13943;SDS011;7044;53.286;8.534;2023-02-21T01:52:51;13.15;;;7.53;;
13943;SDS011;7044;53.286;8.534;2023-02-21T01:55:37;13.88;;;7.53;;
13943;SDS011;7044;53.286;8.534;2023-02-21T01:58:23;10.10;;;7.80;;
13943;SDS011;7044;53.286;8.534;2023-02-21T02:01:11;12.85;;;7.55;;
13943;SDS011;7044;53.286;8.534;2023-02-21T02:04:03;16.17;;;7.35;;
13943;SDS011;7044;53.286;8.534;2023-02-21T02:06:47;15.48;;;7.57;;
13943;SDS011;7044;53.286;8.534;2023-02-21T02:09:33;12.88;;;6.85;;
13943;SDS011;7044;53.286;8.534;2023-02-21T02:12:22;17.13;;;6.57;;
13943;SDS011;7044;53.286;8.534;2023-02-21T02:15:05;12.45;;;6.82;;
13943;SDS011;7044;53.286;8.534;2023-02-21T02:18:12;17.47;;;7.17;;
13943;SDS011;7044;53.286;8.534;2023-02-21T02:21:04;12.35;;;6.53;;
13943;SDS011;7044;53.286;8.534;2023-02-21T02:27:15;11.85;;;5.85;;
13943;SDS011;7044;53.286;8.534;2023-02-21T02:33:32;12.23;;;6.28;;
13943;SDS011;7044;53.286;8.534;2023-02-21T02:36:33;11.85;;;6.03;;
13943;SDS011;7044;53.286;8.534;2023-02-21T02:39:08;10.27;;;6.00;;
13943;SDS011;7044;53.286;8.534;2023-02-21T02:41:45;12.03;;;6.30;;
13943;SDS011;7044;53.286;8.534;2023-02-21T02:44:20;9.57;;;5.87;;
13943;SDS011;7044;53.286;8.534;2023-02-21T02:46:52;15.18;;;6.05;;
13943;SDS011;7044;53.286;8.534;2023-02-21T02:49:25;8.77;;;5.00;;
13943;SDS011;7044;53.286;8.534;2023-02-21T02:51:56;11.40;;;5.82;;
13943;SDS011;7044;53.286;8.534;2023-02-21T02:54:29;9.75;;;5.50;;
13943;SDS011;7044;53.286;8.534;2023-02-21T02:56:55;11.20;;;5.60;;
13943;SDS011;7044;53.286;8.534;2023-02-21T02:59:24;13.17;;;5.30;;
13943;SDS011;7044;53.286;8.534;2023-02-21T03:05:10;10.15;;;5.00;;
13943;SDS011;7044;53.286;8.534;2023-02-21T03:07:49;8.57;;;5.07;;
13943;SDS011;7044;53.286;8.534;2023-02-21T03:10:26;10.38;;;4.65;;
13943;SDS011;7044;53.286;8.534;2023-02-21T03:13:03;10.95;;;5.57;;
13943;SDS011;7044;53.286;8.534;2023-02-21T03:15:35;6.13;;;4.63;;
13943;SDS011;7044;53.286;8.534;2023-02-21T03:18:11;7.63;;;4.40;;
13943;SDS011;7044;53.286;8.534;2023-02-21T03:20:43;9.05;;;4.78;;
13943;SDS011;7044;53.286;8.534;2023-02-21T03:23:16;10.45;;;4.93;;
13943;SDS011;7044;53.286;8.534;2023-02-21T03:25:44;9.43;;;4.47;;
13943;SDS011;7044;53.286;8.534;2023-02-21T03:28:13;9.85;;;4.53;;
13943;SDS011;7044;53.286;8.534;2023-02-21T03:30:40;7.15;;;4.80;;
13943;SDS011;7044;53.286;8.534;2023-02-21T03:33:09;14.88;;;5.68;;
13943;SDS011;7044;53.286;8.534;2023-02-21T03:35:36;10.07;;;4.35;;
13943;SDS011;7044;53.286;8.534;2023-02-21T03:38:03;10.10;;;4.38;;
13943;SDS011;7044;53.286;8.534;2023-02-21T03:40:32;8.55;;;5.10;;
13943;SDS011;7044;53.286;8.534;2023-02-21T03:43:00;10.13;;;4.37;;
13943;SDS011;7044;53.286;8.534;2023-02-21T03:45:29;7.47;;;4.73;;
13943;SDS011;7044;53.286;8.534;2023-02-21T03:47:56;10.23;;;4.57;;
13943;SDS011;7044;53.286;8.534;2023-02-21T03:50:22;11.20;;;4.97;;
13943;SDS011;7044;53.286;8.534;2023-02-21T03:52:49;8.55;;;4.55;;
13943;SDS011;7044;53.286;8.534;2023-02-21T03:55:16;10.23;;;4.65;;
13943;SDS011;7044;53.286;8.534;2023-02-21T03:57:46;7.13;;;4.72;;
13943;SDS011;7044;53.286;8.534;2023-02-21T04:00:13;12.77;;;4.63;;
13943;SDS011;7044;53.286;8.534;2023-02-21T04:02:40;6.85;;;4.50;;
13943;SDS011;7044;53.286;8.534;2023-02-21T04:05:07;10.95;;;4.85;;
13943;SDS011;7044;53.286;8.534;2023-02-21T04:07:34;7.40;;;4.20;;
13943;SDS011;7044;53.286;8.534;2023-02-21T04:10:01;13.18;;;4.72;;
13943;SDS011;7044;53.286;8.534;2023-02-21T04:12:28;9.90;;;5.05;;
13943;SDS011;7044;53.286;8.534;2023-02-21T04:14:56;9.45;;;4.72;;
13943;SDS011;7044;53.286;8.534;2023-02-21T04:17:23;13.00;;;4.82;;
13943;SDS011;7044;53.286;8.534;2023-02-21T04:19:51;8.52;;;5.20;;
13943;SDS011;7044;53.286;8.534;2023-02-21T04:22:17;9.57;;;5.22;;
13943;SDS011;7044;53.286;8.534;2023-02-21T04:24:44;11.95;;;4.75;;
13943;SDS011;7044;53.286;8.534;2023-02-21T04:27:12;7.57;;;4.55;;
13943;SDS011;7044;53.286;8.534;2023-02-21T04:29:39;14.43;;;3.60;;
13943;SDS011;7044;53.286;8.534;2023-02-21T04:32:07;8.93;;;4.50;;
13943;SDS011;7044;53.286;8.534;2023-02-21T04:34:35;6.27;;;3.73;;
13943;SDS011;7044;53.286;8.534;2023-02-21T04:37:02;7.07;;;3.80;;
13943;SDS011;7044;53.286;8.534;2023-02-21T04:39:29;12.70;;;3.60;;
13943;SDS011;7044;53.286;8.534;2023-02-21T04:41:56;6.03;;;3.65;;
13943;SDS011;7044;53.286;8.534;2023-02-21T04:44:23;7.30;;;3.47;;
13943;SDS011;7044;53.286;8.534;2023-02-21T04:46:49;7.50;;;3.67;;
13943;SDS011;7044;53.286;8.534;2023-02-21T04:49:18;8.18;;;3.78;;
13943;SDS011;7044;53.286;8.534;2023-02-21T04:51:44;7.15;;;3.65;;
13943;SDS011;7044;53.286;8.534;2023-02-21T04:54:11;6.13;;;3.30;;
13943;SDS011;7044;53.286;8.534;2023-02-21T04:56:38;9.68;;;3.72;;
13943;SDS011;7044;53.286;8.534;2023-02-21T04:59:05;7.38;;;3.90;;
13943;SDS011;7044;53.286;8.534;2023-02-21T05:01:32;5.88;;;3.85;;
13943;SDS011;7044;53.286;8.534;2023-02-21T05:03:59;6.53;;;3.57;;
13943;SDS011;7044;53.286;8.534;2023-02-21T05:06:27;9.53;;;3.83;;
13943;SDS011;7044;53.286;8.534;2023-02-21T05:08:55;7.70;;;3.72;;
13943;SDS011;7044;53.286;8.534;2023-02-21T05:11:23;8.15;;;3.50;;
13943;SDS011;7044;53.286;8.534;2023-02-21T05:13:51;8.90;;;3.88;;
13943;SDS011;7044;53.286;8.534;2023-02-21T05:16:18;9.57;;;4.40;;
13943;SDS011;7044;53.286;8.534;2023-02-21T05:18:46;6.28;;;4.55;;
13943;SDS011;7044;53.286;8.534;2023-02-21T05:21:14;5.88;;;3.78;;
13943;SDS011;7044;53.286;8.534;2023-02-21T05:23:43;11.03;;;4.27;;
13943;SDS011;7044;53.286;8.534;2023-02-21T05:26:20;12.20;;;4.90;;
13943;SDS011;7044;53.286;8.534;2023-02-21T05:28:48;13.63;;;4.40;;
13943;SDS011;7044;53.286;8.534;2023-02-21T05:31:15;10.20;;;4.32;;
13943;SDS011;7044;53.286;8.534;2023-02-21T05:33:42;9.27;;;4.60;;
13943;SDS011;7044;53.286;8.534;2023-02-21T05:36:09;9.57;;;4.80;;
13943;SDS011;7044;53.286;8.534;2023-02-21T05:38:44;9.53;;;4.83;;
13943;SDS011;7044;53.286;8.534;2023-02-21T05:41:12;7.13;;;4.18;;
13943;SDS011;7044;53.286;8.534;2023-02-21T05:43:39;8.67;;;4.63;;
13943;SDS011;7044;53.286;8.534;2023-02-21T05:46:15;12.20;;;5.43;;
13943;SDS011;7044;53.286;8.534;2023-02-21T05:48:43;9.47;;;4.70;;
13943;SDS011;7044;53.286;8.534;2023-02-21T05:51:10;12.23;;;5.03;;
13943;SDS011;7044;53.286;8.534;2023-02-21T05:53:37;6.53;;;3.93;;
13943;SDS011;7044;53.286;8.534;2023-02-21T05:56:05;9.33;;;3.97;;
13943;SDS011;7044;53.286;8.534;2023-02-21T05:58:32;6.50;;;4.03;;
13943;SDS011;7044;53.286;8.534;2023-02-21T06:00:59;10.00;;;4.13;;
13943;SDS011;7044;53.286;8.534;2023-02-21T06:03:26;10.27;;;4.55;;
13943;SDS011;7044;53.286;8.534;2023-02-21T06:05:53;11.73;;;4.65;;
13943;SDS011;7044;53.286;8.534;2023-02-21T06:08:20;6.47;;;3.90;;
13943;SDS011;7044;53.286;8.534;2023-02-21T06:10:47;12.93;;;4.10;;
13943;SDS011;7044;53.286;8.534;2023-02-21T06:13:15;7.53;;;3.90;;
13943;SDS011;7044;53.286;8.534;2023-02-21T06:15:42;7.43;;;3.73;;
13943;SDS011;7044;53.286;8.534;2023-02-21T06:18:11;8.17;;;4.07;;
13943;SDS011;7044;53.286;8.534;2023-02-21T06:20:38;8.70;;;3.90;;
13943;SDS011;7044;53.286;8.534;2023-02-21T06:23:04;12.17;;;4.30;;
13943;SDS011;7044;53.286;8.534;2023-02-21T06:25:31;4.97;;;4.07;;
13943;SDS011;7044;53.286;8.534;2023-02-21T06:27:58;15.47;;;4.10;;
13943;SDS011;7044;53.286;8.534;2023-02-21T06:30:26;8.97;;;5.10;;
13943;SDS011;7044;53.286;8.534;2023-02-21T06:32:53;9.23;;;4.13;;
13943;SDS011;7044;53.286;8.534;2023-02-21T06:35:20;9.57;;;4.60;;
13943;SDS011;7044;53.286;8.534;2023-02-21T06:37:47;6.97;;;4.82;;
13943;SDS011;7044;53.286;8.534;2023-02-21T06:40:14;7.60;;;4.97;;
13943;SDS011;7044;53.286;8.534;2023-02-21T06:42:41;12.37;;;5.63;;
13943;SDS011;7044;53.286;8.534;2023-02-21T06:45:08;14.60;;;6.10;;
13943;SDS011;7044;53.286;8.534;2023-02-21T06:47:36;13.85;;;4.95;;
13943;SDS011;7044;53.286;8.534;2023-02-21T06:50:03;11.30;;;5.23;;
13943;SDS011;7044;53.286;8.534;2023-02-21T06:52:30;16.00;;;5.57;;
13943;SDS011;7044;53.286;8.534;2023-02-21T06:54:57;13.87;;;5.10;;
13943;SDS011;7044;53.286;8.534;2023-02-21T06:57:24;12.37;;;5.43;;
13943;SDS011;7044;53.286;8.534;2023-02-21T06:59:51;14.32;;;6.03;;
13943;SDS011;7044;53.286;8.534;2023-02-21T07:02:18;15.13;;;5.73;;
13943;SDS011;7044;53.286;8.534;2023-02-21T07:04:47;13.57;;;5.40;;
13943;SDS011;7044;53.286;8.534;2023-02-21T07:07:13;14.23;;;5.30;;
13943;SDS011;7044;53.286;8.534;2023-02-21T07:09:41;7.73;;;5.23;;
13943;SDS011;7044;53.286;8.534;2023-02-21T07:12:08;7.87;;;5.00;;
13943;SDS011;7044;53.286;8.534;2023-02-21T07:14:35;8.32;;;4.95;;
13943;SDS011;7044;53.286;8.534;2023-02-21T07:17:02;9.83;;;5.70;;
13943;SDS011;7044;53.286;8.534;2023-02-21T07:19:29;13.37;;;5.17;;
13943;SDS011;7044;53.286;8.534;2023-02-21T07:21:57;10.07;;;5.70;;
13943;SDS011;7044;53.286;8.534;2023-02-21T07:24:24;5.57;;;4.45;;
13943;SDS011;7044;53.286;8.534;2023-02-21T07:26:50;5.87;;;4.27;;
13943;SDS011;7044;53.286;8.534;2023-02-21T07:29:17;11.52;;;5.72;;
13943;SDS011;7044;53.286;8.534;2023-02-21T07:31:44;15.07;;;5.20;;
13943;SDS011;7044;53.286;8.534;2023-02-21T07:34:11;11.95;;;5.20;;
13943;SDS011;7044;53.286;8.534;2023-02-21T07:36:39;9.43;;;4.97;;
13943;SDS011;7044;53.286;8.534;2023-02-21T07:39:07;8.88;;;5.45;;
13943;SDS011;7044;53.286;8.534;2023-02-21T07:41:34;15.95;;;5.30;;
13943;SDS011;7044;53.286;8.534;2023-02-21T07:44:01;6.13;;;4.22;;
13943;SDS011;7044;53.286;8.534;2023-02-21T07:46:28;13.55;;;5.75;;
13943;SDS011;7044;53.286;8.534;2023-02-21T07:48:55;14.37;;;5.53;;
13943;SDS011;7044;53.286;8.534;2023-02-21T07:51:22;10.93;;;5.05;;
13943;SDS011;7044;53.286;8.534;2023-02-21T07:53:53;8.98;;;5.45;;
13943;SDS011;7044;53.286;8.534;2023-02-21T07:56:21;6.50;;;4.90;;
13943;SDS011;7044;53.286;8.534;2023-02-21T07:58:48;10.18;;;4.57;;
13943;SDS011;7044;53.286;8.534;2023-02-21T08:01:15;11.07;;;4.68;;
13943;SDS011;7044;53.286;8.534;2023-02-21T08:03:42;10.45;;;5.38;;
13943;SDS011;7044;53.286;8.534;2023-02-21T08:06:09;13.18;;;5.07;;
13943;SDS011;7044;53.286;8.534;2023-02-21T08:08:37;10.85;;;3.92;;
13943;SDS011;7044;53.286;8.534;2023-02-21T08:11:04;10.75;;;5.07;;
13943;SDS011;7044;53.286;8.534;2023-02-21T08:13:32;13.20;;;5.10;;
13943;SDS011;7044;53.286;8.534;2023-02-21T08:15:59;8.27;;;4.57;;
13943;SDS011;7044;53.286;8.534;2023-02-21T08:18:26;11.18;;;4.60;;
13943;SDS011;7044;53.286;8.534;2023-02-21T08:20:54;13.93;;;4.55;;
13943;SDS011;7044;53.286;8.534;2023-02-21T08:23:22;8.07;;;4.72;;
13943;SDS011;7044;53.286;8.534;2023-02-21T08:25:49;6.68;;;4.82;;
13943;SDS011;7044;53.286;8.534;2023-02-21T08:28:16;14.32;;;4.57;;
13943;SDS011;7044;53.286;8.534;2023-02-21T08:30:44;7.03;;;4.88;;
13943;SDS011;7044;53.286;8.534;2023-02-21T08:33:11;12.20;;;5.03;;
13943;SDS011;7044;53.286;8.534;2023-02-21T08:35:38;10.95;;;4.90;;
13943;SDS011;7044;53.286;8.534;2023-02-21T08:38:05;12.32;;;4.70;;
13943;SDS011;7044;53.286;8.534;2023-02-21T08:40:32;14.85;;;6.05;;
13943;SDS011;7044;53.286;8.534;2023-02-21T08:42:59;10.27;;;5.15;;
13943;SDS011;7044;53.286;8.534;2023-02-21T08:45:26;9.45;;;4.80;;
13943;SDS011;7044;53.286;8.534;2023-02-21T08:47:55;13.35;;;5.60;;
13943;SDS011;7044;53.286;8.534;2023-02-21T08:50:23;16.77;;;4.43;;
13943;SDS011;7044;53.286;8.534;2023-02-21T08:52:51;11.82;;;5.30;;
13943;SDS011;7044;53.286;8.534;2023-02-21T08:55:19;14.38;;;5.00;;
13943;SDS011;7044;53.286;8.534;2023-02-21T08:57:46;19.35;;;5.28;;
13943;SDS011;7044;53.286;8.534;2023-02-21T09:00:15;10.65;;;5.55;;
13943;SDS011;7044;53.286;8.534;2023-02-21T09:02:42;10.50;;;5.30;;
13943;SDS011;7044;53.286;8.534;2023-02-21T09:05:11;17.73;;;5.25;;
13943;SDS011;7044;53.286;8.534;2023-02-21T09:07:40;23.35;;;5.60;;
13943;SDS011;7044;53.286;8.534;2023-02-21T09:10:07;6.90;;;4.93;;
13943;SDS011;7044;53.286;8.534;2023-02-21T09:12:35;11.63;;;5.35;;
13943;SDS011;7044;53.286;8.534;2023-02-21T09:15:02;12.65;;;5.03;;
13943;SDS011;7044;53.286;8.534;2023-02-21T09:17:29;10.55;;;4.70;;
13943;SDS011;7044;53.286;8.534;2023-02-21T09:19:58;24.00;;;5.05;;
13943;SDS011;7044;53.286;8.534;2023-02-21T09:22:26;10.95;;;5.45;;
13943;SDS011;7044;53.286;8.534;2023-02-21T09:24:55;12.43;;;5.65;;
13943;SDS011;7044;53.286;8.534;2023-02-21T09:27:22;13.48;;;4.85;;
13943;SDS011;7044;53.286;8.534;2023-02-21T09:30:00;12.85;;;6.03;;
13943;SDS011;7044;53.286;8.534;2023-02-21T09:32:31;11.93;;;5.50;;
13943;SDS011;7044;53.286;8.534;2023-02-21T09:34:58;17.65;;;6.03;;
13943;SDS011;7044;53.286;8.534;2023-02-21T09:37:27;11.63;;;5.63;;
13943;SDS011;7044;53.286;8.534;2023-02-21T09:39:54;15.02;;;5.97;;
13943;SDS011;7044;53.286;8.534;2023-02-21T09:42:23;19.73;;;6.43;;
13943;SDS011;7044;53.286;8.534;2023-02-21T09:44:53;13.20;;;5.85;;
13943;SDS011;7044;53.286;8.534;2023-02-21T09:47:21;10.90;;;5.32;;
13943;SDS011;7044;53.286;8.534;2023-02-21T09:49:53;13.07;;;5.90;;
13943;SDS011;7044;53.286;8.534;2023-02-21T09:52:29;11.65;;;5.60;;
13943;SDS011;7044;53.286;8.534;2023-02-21T09:54:59;12.35;;;5.63;;
13943;SDS011;7044;53.286;8.534;2023-02-21T09:57:33;17.08;;;6.25;;
13943;SDS011;7044;53.286;8.534;2023-02-21T10:00:01;16.85;;;6.00;;
13943;SDS011;7044;53.286;8.534;2023-02-21T10:02:39;15.90;;;5.90;;
13943;SDS011;7044;53.286;8.534;2023-02-21T10:05:17;14.75;;;5.53;;
13943;SDS011;7044;53.286;8.534;2023-02-21T10:07:56;16.92;;;6.22;;
13943;SDS011;7044;53.286;8.534;2023-02-21T10:10:29;17.20;;;6.22;;
13943;SDS011;7044;53.286;8.534;2023-02-21T10:13:03;12.63;;;6.78;;
13943;SDS011;7044;53.286;8.534;2023-02-21T10:15:40;15.65;;;6.28;;
13943;SDS011;7044;53.286;8.534;2023-02-21T10:18:14;17.13;;;6.68;;
13943;SDS011;7044;53.286;8.534;2023-02-21T10:20:48;11.32;;;6.45;;
13943;SDS011;7044;53.286;8.534;2023-02-21T10:23:22;15.40;;;7.13;;
13943;SDS011;7044;53.286;8.534;2023-02-21T10:25:56;18.30;;;6.32;;
13943;SDS011;7044;53.286;8.534;2023-02-21T10:28:30;12.43;;;7.07;;
13943;SDS011;7044;53.286;8.534;2023-02-21T10:30:57;14.40;;;6.93;;
13943;SDS011;7044;53.286;8.534;2023-02-21T10:33:28;13.20;;;6.35;;
13943;SDS011;7044;53.286;8.534;2023-02-21T10:35:57;13.45;;;6.80;;
13943;SDS011;7044;53.286;8.534;2023-02-21T10:38:25;15.82;;;6.75;;
13943;SDS011;7044;53.286;8.534;2023-02-21T10:40:53;11.30;;;6.35;;
13943;SDS011;7044;53.286;8.534;2023-02-21T10:43:24;10.85;;;6.68;;
13943;SDS011;7044;53.286;8.534;2023-02-21T10:45:56;22.83;;;8.02;;
13943;SDS011;7044;53.286;8.534;2023-02-21T10:48:26;14.60;;;6.80;;
13943;SDS011;7044;53.286;8.534;2023-02-21T10:51:03;18.80;;;7.30;;
13943;SDS011;7044;53.286;8.534;2023-02-21T10:53:34;11.25;;;6.13;;
13943;SDS011;7044;53.286;8.534;2023-02-21T10:56:06;16.33;;;7.15;;
13943;SDS011;7044;53.286;8.534;2023-02-21T10:58:49;14.40;;;6.65;;
13943;SDS011;7044;53.286;8.534;2023-02-21T11:01:18;11.63;;;6.60;;
13943;SDS011;7044;53.286;8.534;2023-02-21T11:03:49;13.57;;;6.78;;
13943;SDS011;7044;53.286;8.534;2023-02-21T11:06:23;18.88;;;6.65;;
13943;SDS011;7044;53.286;8.534;2023-02-21T11:08:54;11.10;;;6.15;;
13943;SDS011;7044;53.286;8.534;2023-02-21T11:11:31;13.57;;;6.05;;
13943;SDS011;7044;53.286;8.534;2023-02-21T11:14:17;10.48;;;6.07;;
13943;SDS011;7044;53.286;8.534;2023-02-21T11:17:06;15.02;;;7.22;;
13943;SDS011;7044;53.286;8.534;2023-02-21T11:19:42;10.50;;;5.93;;
13943;SDS011;7044;53.286;8.534;2023-02-21T11:22:12;11.68;;;7.05;;
13943;SDS011;7044;53.286;8.534;2023-02-21T11:24:45;14.57;;;6.70;;
13943;SDS011;7044;53.286;8.534;2023-02-21T11:27:14;13.20;;;6.35;;
13943;SDS011;7044;53.286;8.534;2023-02-21T11:29:42;13.65;;;6.20;;
13943;SDS011;7044;53.286;8.534;2023-02-21T11:32:12;13.63;;;6.90;;
13943;SDS011;7044;53.286;8.534;2023-02-21T11:34:49;16.45;;;7.47;;
13943;SDS011;7044;53.286;8.534;2023-02-21T11:37:16;14.15;;;6.55;;
13943;SDS011;7044;53.286;8.534;2023-02-21T11:39:50;14.95;;;7.53;;
13943;SDS011;7044;53.286;8.534;2023-02-21T11:42:24;15.55;;;7.60;;
13943;SDS011;7044;53.286;8.534;2023-02-21T11:45:02;14.95;;;8.25;;
13943;SDS011;7044;53.286;8.534;2023-02-21T11:47:37;14.15;;;7.28;;
13943;SDS011;7044;53.286;8.534;2023-02-21T11:50:09;19.75;;;7.85;;
13943;SDS011;7044;53.286;8.534;2023-02-21T11:52:42;19.15;;;8.35;;
13943;SDS011;7044;53.286;8.534;2023-02-21T11:55:15;16.92;;;7.68;;
13943;SDS011;7044;53.286;8.534;2023-02-21T11:57:46;14.48;;;7.60;;
13943;SDS011;7044;53.286;8.534;2023-02-21T12:00:23;16.02;;;7.88;;
13943;SDS011;7044;53.286;8.534;2023-02-21T12:03:05;14.27;;;7.82;;
13943;SDS011;7044;53.286;8.534;2023-02-21T12:05:52;14.13;;;8.00;;
13943;SDS011;7044;53.286;8.534;2023-02-21T12:08:26;13.15;;;7.47;;
13943;SDS011;7044;53.286;8.534;2023-02-21T12:11:08;11.00;;;7.53;;
13943;SDS011;7044;53.286;8.534;2023-02-21T12:13:50;16.60;;;7.40;;
13943;SDS011;7044;53.286;8.534;2023-02-21T12:16:26;18.40;;;8.57;;
13943;SDS011;7044;53.286;8.534;2023-02-21T12:19:06;13.10;;;8.07;;
13943;SDS011;7044;53.286;8.534;2023-02-21T12:21:48;13.95;;;7.90;;
13943;SDS011;7044;53.286;8.534;2023-02-21T12:24:33;15.50;;;8.50;;
13943;SDS011;7044;53.286;8.534;2023-02-21T12:27:29;17.30;;;8.25;;
13943;SDS011;7044;53.286;8.534;2023-02-21T12:30:08;15.60;;;7.82;;
13943;SDS011;7044;53.286;8.534;2023-02-21T12:32:47;20.92;;;9.43;;
13943;SDS011;7044;53.286;8.534;2023-02-21T12:35:33;18.83;;;9.00;;
13943;SDS011;7044;53.286;8.534;2023-02-21T12:38:12;18.10;;;8.20;;
13943;SDS011;7044;53.286;8.534;2023-02-21T12:40:47;18.90;;;8.20;;
13943;SDS011;7044;53.286;8.534;2023-02-21T12:43:27;15.65;;;7.68;;
13943;SDS011;7044;53.286;8.534;2023-02-21T12:46:05;23.80;;;8.15;;
13943;SDS011;7044;53.286;8.534;2023-02-21T12:48:38;21.50;;;8.30;;
13943;SDS011;7044;53.286;8.534;2023-02-21T12:51:09;18.52;;;8.32;;
13943;SDS011;7044;53.286;8.534;2023-02-21T12:53:40;17.33;;;8.70;;
13943;SDS011;7044;53.286;8.534;2023-02-21T12:56:11;21.38;;;8.80;;
13943;SDS011;7044;53.286;8.534;2023-02-21T12:58:45;15.48;;;8.98;;
13943;SDS011;7044;53.286;8.534;2023-02-21T13:01:16;18.05;;;8.75;;
13943;SDS011;7044;53.286;8.534;2023-02-21T13:03:54;14.35;;;8.25;;
13943;SDS011;7044;53.286;8.534;2023-02-21T13:06:30;16.35;;;8.55;;
13943;SDS011;7044;53.286;8.534;2023-02-21T13:09:05;16.45;;;8.68;;
13943;SDS011;7044;53.286;8.534;2023-02-21T13:11:39;17.35;;;9.50;;
13943;SDS011;7044;53.286;8.534;2023-02-21T13:14:13;18.50;;;8.75;;
13943;SDS011;7044;53.286;8.534;2023-02-21T13:16:43;17.25;;;8.05;;
13943;SDS011;7044;53.286;8.534;2023-02-21T13:19:11;17.73;;;8.10;;
13943;SDS011;7044;53.286;8.534;2023-02-21T13:21:46;13.73;;;7.47;;
13943;SDS011;7044;53.286;8.534;2023-02-21T13:24:27;15.85;;;8.63;;
13943;SDS011;7044;53.286;8.534;2023-02-21T13:27:18;17.00;;;8.02;;
13943;SDS011;7044;53.286;8.534;2023-02-21T13:30:00;16.73;;;8.27;;
13943;SDS011;7044;53.286;8.534;2023-02-21T13:32:36;14.43;;;7.88;;
13943;SDS011;7044;53.286;8.534;2023-02-21T13:35:05;14.80;;;8.13;;
13943;SDS011;7044;53.286;8.534;2023-02-21T13:37:35;14.10;;;9.13;;
13943;SDS011;7044;53.286;8.534;2023-02-21T13:40:15;16.60;;;8.02;;
13943;SDS011;7044;53.286;8.534;2023-02-21T13:42:48;13.32;;;7.95;;
13943;SDS011;7044;53.286;8.534;2023-02-21T13:45:27;12.57;;;7.72;;
13943;SDS011;7044;53.286;8.534;2023-02-21T13:48:16;14.93;;;7.80;;
13943;SDS011;7044;53.286;8.534;2023-02-21T13:50:49;14.68;;;8.13;;
13943;SDS011;7044;53.286;8.534;2023-02-21T13:53:17;18.70;;;8.15;;
13943;SDS011;7044;53.286;8.534;2023-02-21T13:58:41;15.57;;;7.85;;
13943;SDS011;7044;53.286;8.534;2023-02-21T14:10:23;11.98;;;7.45;;
13943;SDS011;7044;53.286;8.534;2023-02-21T14:12:54;12.85;;;7.15;;
13943;SDS011;7044;53.286;8.534;2023-02-21T14:15:34;15.20;;;8.15;;
13943;SDS011;7044;53.286;8.534;2023-02-21T14:18:02;17.05;;;8.07;;
13943;SDS011;7044;53.286;8.534;2023-02-21T14:20:30;15.63;;;8.48;;
13943;SDS011;7044;53.286;8.534;2023-02-21T14:23:02;13.63;;;7.82;;
13943;SDS011;7044;53.286;8.534;2023-02-21T14:25:30;13.82;;;8.15;;
13943;SDS011;7044;53.286;8.534;2023-02-21T14:28:01;15.80;;;7.90;;
13943;SDS011;7044;53.286;8.534;2023-02-21T14:30:47;13.90;;;8.18;;
13943;SDS011;7044;53.286;8.534;2023-02-21T14:33:21;12.95;;;7.78;;
13943;SDS011;7044;53.286;8.534;2023-02-21T14:35:55;13.02;;;7.93;;
13943;SDS011;7044;53.286;8.534;2023-02-21T14:38:28;17.98;;;8.15;;
13943;SDS011;7044;53.286;8.534;2023-02-21T14:41:06;12.77;;;7.68;;
13943;SDS011;7044;53.286;8.534;2023-02-21T14:49:55;14.00;;;8.45;;
13943;SDS011;7044;53.286;8.534;2023-02-21T14:52:34;12.52;;;8.10;;
13943;SDS011;7044;53.286;8.534;2023-02-21T14:55:21;15.13;;;8.55;;
13943;SDS011;7044;53.286;8.534;2023-02-21T14:58:08;13.60;;;8.00;;
13943;SDS011;7044;53.286;8.534;2023-02-21T15:01:02;11.45;;;7.97;;
13943;SDS011;7044;53.286;8.534;2023-02-21T15:03:36;13.23;;;8.27;;
13943;SDS011;7044;53.286;8.534;2023-02-21T15:06:09;11.15;;;8.20;;
13943;SDS011;7044;53.286;8.534;2023-02-21T15:08:43;19.95;;;8.07;;
13943;SDS011;7044;53.286;8.534;2023-02-21T15:11:18;17.80;;;7.95;;
13943;SDS011;7044;53.286;8.534;2023-02-21T15:13:48;14.40;;;8.48;;
13943;SDS011;7044;53.286;8.534;2023-02-21T15:16:40;17.52;;;8.25;;
13943;SDS011;7044;53.286;8.534;2023-02-21T15:19:18;14.35;;;9.13;;
13943;SDS011;7044;53.286;8.534;2023-02-21T15:21:49;14.88;;;8.93;;
13943;SDS011;7044;53.286;8.534;2023-02-21T15:24:50;19.63;;;9.20;;
13943;SDS011;7044;53.286;8.534;2023-02-21T15:27:26;13.85;;;8.68;;
13943;SDS011;7044;53.286;8.534;2023-02-21T15:30:03;14.73;;;8.60;;
13943;SDS011;7044;53.286;8.534;2023-02-21T15:32:33;15.80;;;8.88;;
13943;SDS011;7044;53.286;8.534;2023-02-21T15:35:01;16.80;;;9.07;;
13943;SDS011;7044;53.286;8.534;2023-02-21T15:37:31;14.10;;;8.68;;
13943;SDS011;7044;53.286;8.534;2023-02-21T15:40:03;20.95;;;9.93;;
13943;SDS011;7044;53.286;8.534;2023-02-21T15:42:37;19.75;;;9.10;;
13943;SDS011;7044;53.286;8.534;2023-02-21T15:45:07;14.55;;;8.73;;
13943;SDS011;7044;53.286;8.534;2023-02-21T15:47:37;15.35;;;8.75;;
13943;SDS011;7044;53.286;8.534;2023-02-21T15:50:05;12.35;;;8.52;;
13943;SDS011;7044;53.286;8.534;2023-02-21T15:52:35;14.43;;;9.65;;
13943;SDS011;7044;53.286;8.534;2023-02-21T15:55:25;14.18;;;9.18;;